Time;durP1;ratioP1;P1;durP2;ratioP2;P2;SDS_P1;SDS_P2;PMS_P1;PMS_P2;Temp;Humidity;BMP_temperature;BMP_pressure;BME280_temperature;BME280_humidity;BME280_pressure;Samples;Min_cycle;Max_cycle;Signal;HPM_P1;HPM_P2
2022/10/26 00:01:20;;;;;;;2.42;2.22;;;21.10;99.90;;;;;;5045962;28;20646;-45
2022/10/26 00:03:47;;;;;;;5.30;2.25;;;21.00;99.90;;;;;;5041401;28;20287;-43
2022/10/26 00:06:16;;;;;;;2.40;2.20;;;21.00;99.90;;;;;;5040936;28;20196;-43
2022/10/26 00:08:43;;;;;;;2.55;2.33;;;21.00;99.90;;;;;;5032783;28;20631;-43
2022/10/26 00:11:10;;;;;;;3.08;2.50;;;21.00;99.90;;;;;;5039863;28;20206;-45
2022/10/26 00:13:38;;;;;;;2.75;2.47;;;21.00;99.90;;;;;;5035662;28;20214;-43
2022/10/26 00:16:09;;;;;;;4.82;2.15;;;21.00;99.90;;;;;;5040650;28;20670;-44
2022/10/26 00:18:37;;;;;;;3.28;1.70;;;21.00;99.90;;;;;;5048737;28;20681;-43
2022/10/26 00:21:04;;;;;;;2.55;2.20;;;21.00;99.90;;;;;;5043119;28;20631;-43
2022/10/26 00:23:31;;;;;;;2.25;2.08;;;20.90;99.90;;;;;;5045902;28;20202;-44
2022/10/26 00:25:58;;;;;;;2.50;2.30;;;20.90;99.90;;;;;;5039494;28;20214;-46
2022/10/26 00:28:25;;;;;;;2.40;2.20;;;20.90;99.90;;;;;;5042977;28;20192;-43
2022/10/26 00:30:52;;;;;;;2.60;2.40;;;20.90;99.90;;;;;;5043212;28;20199;-46
2022/10/26 00:33:19;;;;;;;2.20;2.00;;;20.90;99.90;;;;;;5039407;28;20196;-43
2022/10/26 00:35:52;;;;;;;3.20;2.90;;;20.80;99.90;;;;;;5044728;28;20195;-43
2022/10/26 00:38:19;;;;;;;2.38;2.17;;;20.80;99.90;;;;;;5033238;28;20222;-43
2022/10/26 00:40:46;;;;;;;2.95;2.60;;;20.80;99.90;;;;;;5040190;28;20210;-42
2022/10/26 00:43:33;;;;;;;2.30;2.08;;;20.80;99.90;;;;;;5051794;28;20674;-44
2022/10/26 00:46:02;;;;;;;3.00;2.50;;;20.80;99.90;;;;;;5046446;28;20846;-42
2022/10/26 00:48:34;;;;;;;2.45;2.25;;;20.70;99.90;;;;;;5048956;28;20202;-43
2022/10/26 00:51:06;;;;;;;2.45;2.25;;;20.70;99.90;;;;;;5043500;28;20194;-43
2022/10/26 00:53:33;;;;;;;4.60;3.00;;;20.70;99.90;;;;;;5048722;28;20192;-43
2022/10/26 00:56:01;;;;;;;2.30;2.10;;;20.70;99.90;;;;;;5043460;28;20215;-43
2022/10/26 00:58:29;;;;;;;2.30;2.10;;;20.70;99.90;;;;;;5045828;28;20219;-43
2022/10/26 01:00:55;;;;;;;2.45;2.25;;;20.70;99.90;;;;;;5042407;28;20564;-44
2022/10/26 01:03:23;;;;;;;2.60;2.40;;;20.60;99.90;;;;;;5046791;28;20258;-43
2022/10/26 01:05:53;;;;;;;2.63;2.42;;;20.60;99.90;;;;;;5034572;28;20223;-43
2022/10/26 01:08:22;;;;;;;2.25;2.05;;;20.60;99.90;;;;;;5043361;28;20196;-44
2022/10/26 01:10:48;;;;;;;2.40;2.20;;;20.60;99.90;;;;;;5045462;28;20208;-43
2022/10/26 01:13:17;;;;;;;2.60;2.40;;;20.60;99.90;;;;;;5042133;28;20192;-43
2022/10/26 01:15:51;;;;;;;2.20;2.00;;;20.50;99.90;;;;;;5042002;28;20195;-43
2022/10/26 01:18:27;;;;;;;3.10;2.10;;;20.50;99.90;;;;;;5045890;28;20222;-44
2022/10/26 01:21:21;;;;;;;2.40;2.20;;;20.50;99.90;;;;;;5046063;28;20193;-43
2022/10/26 01:24:06;;;;;;;2.28;2.00;;;20.50;99.90;;;;;;5041559;28;20196;-43
2022/10/26 01:26:51;;;;;;;2.80;2.60;;;20.50;99.90;;;;;;5042668;28;20199;-43
2022/10/26 01:29:43;;;;;;;4.13;2.38;;;20.50;99.90;;;;;;5042871;28;20313;-46
2022/10/26 01:32:15;;;;;;;2.47;2.28;;;20.50;99.90;;;;;;5042702;28;20201;-46
2022/10/26 01:34:47;;;;;;;2.40;2.20;;;20.50;99.90;;;;;;5036110;28;20200;-43
2022/10/26 01:37:20;;;;;;;2.58;2.38;;;20.40;99.90;;;;;;5051634;28;20218;-44
2022/10/26 01:39:52;;;;;;;2.80;2.25;;;20.40;99.90;;;;;;5033821;28;20207;-43
2022/10/26 01:42:21;;;;;;;2.10;1.90;;;20.40;99.90;;;;;;5039986;28;20195;-43
2022/10/26 01:44:53;;;;;;;2.60;2.40;;;20.40;99.90;;;;;;5046594;28;20199;-43
2022/10/26 01:47:23;;;;;;;3.97;2.72;;;20.40;99.90;;;;;;5042049;28;20195;-44
2022/10/26 01:49:53;;;;;;;2.30;2.10;;;20.40;99.90;;;;;;5045856;28;20202;-44
2022/10/26 01:52:20;;;;;;;2.30;2.10;;;20.30;99.90;;;;;;5051692;28;20194;-46
2022/10/26 01:54:47;;;;;;;2.50;2.30;;;20.30;99.90;;;;;;5039403;28;20191;-43
2022/10/26 01:57:17;;;;;;;2.10;1.90;;;20.30;99.90;;;;;;5049501;28;20306;-49
2022/10/26 02:00:01;;;;;;;2.50;2.30;;;20.30;99.90;;;;;;5045941;28;20269;-43
2022/10/26 02:02:49;;;;;;;2.50;2.30;;;20.30;99.90;;;;;;5040906;28;20199;-46
2022/10/26 02:05:30;;;;;;;2.40;2.20;;;20.30;99.90;;;;;;5045937;28;20195;-46
2022/10/26 02:08:07;;;;;;;2.03;1.83;;;20.20;99.90;;;;;;5035581;28;20199;-44
2022/10/26 02:10:46;;;;;;;3.63;2.10;;;20.20;99.90;;;;;;5042237;28;20256;-46
2022/10/26 02:13:18;;;;;;;2.70;2.50;;;20.20;99.90;;;;;;5037592;28;20211;-43
2022/10/26 02:15:53;;;;;;;2.30;2.08;;;20.20;99.90;;;;;;5045578;28;20187;-44
2022/10/26 02:18:28;;;;;;;2.40;2.20;;;20.20;99.90;;;;;;5037661;28;20214;-42
2022/10/26 02:21:02;;;;;;;2.20;2.00;;;20.20;99.90;;;;;;5050985;28;20252;-43
2022/10/26 02:23:32;;;;;;;2.45;2.25;;;20.20;99.90;;;;;;5036679;28;20195;-43
2022/10/26 02:26:00;;;;;;;2.70;2.40;;;20.20;99.90;;;;;;5047121;28;20199;-44
2022/10/26 02:28:33;;;;;;;1.90;1.80;;;20.20;99.90;;;;;;5036888;28;20294;-44
2022/10/26 02:31:01;;;;;;;1.88;1.70;;;20.10;99.90;;;;;;5036463;28;20199;-45
2022/10/26 02:33:33;;;;;;;2.00;1.75;;;20.10;99.90;;;;;;5034374;28;20199;-46
2022/10/26 02:36:03;;;;;;;1.88;1.73;;;20.10;99.90;;;;;;5030335;28;20200;-45
2022/10/26 02:38:32;;;;;;;3.28;2.38;;;20.10;99.90;;;;;;5040122;28;20223;-45
2022/10/26 02:41:01;;;;;;;2.50;2.30;;;20.10;99.90;;;;;;5034220;28;20199;-45
2022/10/26 02:43:30;;;;;;;3.20;2.15;;;20.00;99.90;;;;;;5045365;28;20195;-43
2022/10/26 02:46:02;;;;;;;2.17;2.03;;;20.10;99.90;;;;;;5039449;28;20196;-43
2022/10/26 02:48:30;;;;;;;2.10;1.92;;;20.10;99.90;;;;;;5039255;28;20199;-43
2022/10/26 02:51:02;;;;;;;2.47;2.08;;;20.00;99.90;;;;;;5045704;28;20570;-43
2022/10/26 02:53:33;;;;;;;2.25;2.05;;;20.00;99.90;;;;;;5041187;28;20196;-44
2022/10/26 02:56:06;;;;;;;2.35;2.15;;;20.00;99.90;;;;;;5042808;28;20214;-46
2022/10/26 02:58:38;;;;;;;2.35;2.15;;;20.00;99.90;;;;;;5046135;28;20218;-46
2022/10/26 03:01:05;;;;;;;2.00;1.90;;;20.00;99.90;;;;;;5042465;28;20226;-43
2022/10/26 03:03:33;;;;;;;2.10;1.90;;;20.00;99.90;;;;;;5040749;28;20203;-43
2022/10/26 03:06:00;;;;;;;2.33;2.13;;;20.00;99.90;;;;;;5038691;28;20579;-44
2022/10/26 03:08:27;;;;;;;2.58;2.38;;;20.00;99.90;;;;;;5042725;28;20604;-44
2022/10/26 03:10:53;;;;;;;2.00;1.83;;;20.00;99.90;;;;;;5038823;28;20195;-43
2022/10/26 03:13:20;;;;;;;2.05;1.85;;;19.90;99.90;;;;;;5032271;28;20195;-43
2022/10/26 03:15:47;;;;;;;1.80;1.70;;;19.90;99.90;;;;;;5029193;28;20191;-45
2022/10/26 03:18:13;;;;;;;2.15;1.95;;;19.90;99.90;;;;;;5041478;28;20689;-45
2022/10/26 03:20:44;;;;;;;1.92;1.80;;;19.90;99.90;;;;;;5041501;28;20638;-44
2022/10/26 03:23:11;;;;;;;2.00;1.77;;;19.90;99.90;;;;;;5042427;28;20206;-43
2022/10/26 03:25:38;;;;;;;2.17;1.95;;;19.90;99.90;;;;;;5032462;28;20203;-43
2022/10/26 03:28:06;;;;;;;2.80;2.38;;;19.90;99.90;;;;;;5047683;28;20210;-44
2022/10/26 03:30:32;;;;;;;2.20;2.00;;;19.90;99.90;;;;;;5044980;28;20214;-44
2022/10/26 03:32:59;;;;;;;2.45;2.10;;;19.80;99.90;;;;;;5033407;28;20191;-46
2022/10/26 03:35:26;;;;;;;1.88;1.65;;;19.80;99.90;;;;;;5036367;28;20202;-44
2022/10/26 03:37:54;;;;;;;2.35;2.15;;;19.80;99.90;;;;;;5041512;28;20219;-42
2022/10/26 03:40:20;;;;;;;1.90;1.80;;;19.80;99.90;;;;;;5035392;28;20221;-43
2022/10/26 03:42:47;;;;;;;2.05;1.85;;;19.80;99.90;;;;;;5047237;28;20210;-45
2022/10/26 03:45:14;;;;;;;2.60;1.80;;;19.90;99.90;;;;;;5047412;28;20199;-43
2022/10/26 03:47:43;;;;;;;1.83;1.73;;;20.20;99.90;;;;;;5049500;28;20672;-43
2022/10/26 03:50:11;;;;;;;1.70;1.60;;;20.50;99.90;;;;;;5036958;28;20215;-44
2022/10/26 03:52:38;;;;;;;2.90;2.40;;;20.60;99.90;;;;;;5043911;28;20191;-43
2022/10/26 03:55:07;;;;;;;1.75;1.55;;;20.80;99.90;;;;;;5044083;28;20659;-45
2022/10/26 03:57:34;;;;;;;2.63;1.77;;;20.90;99.90;;;;;;5047332;28;21750;-44
2022/10/26 04:00:01;;;;;;;1.85;1.73;;;21.00;99.90;;;;;;5046408;28;20252;-43
2022/10/26 04:02:27;;;;;;;3.00;2.07;;;21.20;99.90;;;;;;5049332;28;20214;-43
2022/10/26 04:04:54;;;;;;;2.37;1.50;;;21.20;99.90;;;;;;5045615;28;20461;-45
2022/10/26 04:07:20;;;;;;;2.70;1.73;;;21.20;99.90;;;;;;5050775;28;20452;-43
2022/10/26 04:09:47;;;;;;;1.70;1.60;;;21.30;99.90;;;;;;5043320;28;20465;-43
2022/10/26 04:12:15;;;;;;;2.10;2.00;;;21.30;99.90;;;;;;5041928;28;20635;-44
2022/10/26 04:14:42;;;;;;;1.93;1.73;;;21.30;99.90;;;;;;5052696;28;20534;-45
2022/10/26 04:17:09;;;;;;;1.70;1.60;;;21.30;99.90;;;;;;5047244;28;20484;-43
2022/10/26 04:19:35;;;;;;;2.10;1.90;;;21.40;99.90;;;;;;5041714;28;20228;-43
2022/10/26 04:22:02;;;;;;;1.90;1.80;;;21.40;99.90;;;;;;5045588;28;20458;-45
2022/10/26 04:24:29;;;;;;;1.60;1.50;;;21.40;99.90;;;;;;5043599;28;20460;-43
2022/10/26 04:26:55;;;;;;;1.80;1.70;;;21.40;99.90;;;;;;5045152;28;20461;-43
2022/10/26 04:29:23;;;;;;;1.53;1.43;;;21.40;99.90;;;;;;5044307;28;20466;-44
2022/10/26 04:31:50;;;;;;;2.37;1.90;;;21.30;99.90;;;;;;5045455;28;20466;-44
2022/10/26 04:34:17;;;;;;;1.60;1.50;;;21.20;99.90;;;;;;5039973;28;20503;-43
2022/10/26 04:36:44;;;;;;;1.63;1.40;;;21.20;99.90;;;;;;5044214;28;20697;-45
2022/10/26 04:39:10;;;;;;;2.10;1.70;;;21.20;99.90;;;;;;5041845;28;20477;-46
2022/10/26 04:41:37;;;;;;;2.00;1.27;;;21.20;99.90;;;;;;5038516;28;20476;-44
2022/10/26 04:44:03;;;;;;;1.90;1.70;;;21.10;99.90;;;;;;5049553;28;20925;-45
2022/10/26 04:46:32;;;;;;;1.50;1.40;;;21.10;99.90;;;;;;5049055;28;20458;-49
2022/10/26 04:48:58;;;;;;;1.60;1.50;;;21.10;99.90;;;;;;5039603;28;20956;-45
2022/10/26 04:51:26;;;;;;;1.52;1.42;;;21.10;99.90;;;;;;5050044;28;20837;-44
2022/10/26 04:53:54;;;;;;;1.93;1.27;;;21.10;99.90;;;;;;5049607;28;20191;-44
2022/10/26 04:56:20;;;;;;;2.90;2.13;;;21.10;99.90;;;;;;5037050;28;20466;-43
2022/10/26 04:58:47;;;;;;;1.73;1.63;;;21.00;99.90;;;;;;5050950;28;20488;-45
2022/10/26 05:01:14;;;;;;;2.07;1.53;;;21.00;99.90;;;;;;5043052;28;20199;-43
2022/10/26 05:03:42;;;;;;;1.67;1.57;;;21.00;99.90;;;;;;5044302;28;20462;-44
2022/10/26 05:06:08;;;;;;;1.60;1.50;;;21.00;99.90;;;;;;5047050;28;20455;-43
2022/10/26 05:08:37;;;;;;;1.87;1.77;;;21.00;99.90;;;;;;5038923;28;20457;-44
2022/10/26 05:11:04;;;;;;;1.55;1.45;;;21.00;99.90;;;;;;5040463;28;20995;-43
2022/10/26 05:13:30;;;;;;;1.40;1.03;;;21.00;99.90;;;;;;5043129;28;20567;-48
2022/10/26 05:15:57;;;;;;;1.90;1.80;;;21.00;99.90;;;;;;5035644;28;20465;-44
2022/10/26 05:18:25;;;;;;;1.60;1.40;;;21.00;99.90;;;;;;5045262;28;20473;-43
2022/10/26 05:20:54;;;;;;;1.40;1.30;;;21.00;99.90;;;;;;5047485;28;20549;-43
2022/10/26 05:23:21;;;;;;;2.00;1.60;;;20.90;99.90;;;;;;5044371;28;20457;-43
2022/10/26 05:25:48;;;;;;;1.53;1.43;;;21.00;99.90;;;;;;5039945;28;20194;-43
2022/10/26 05:28:17;;;;;;;1.50;1.40;;;21.00;99.90;;;;;;5048800;28;20457;-47
2022/10/26 05:30:45;;;;;;;1.33;1.23;;;21.00;99.90;;;;;;5037848;28;20501;-42
2022/10/26 05:33:13;;;;;;;2.80;2.45;;;21.10;99.90;;;;;;5045560;28;20457;-42
2022/10/26 05:35:40;;;;;;;1.63;1.53;;;21.10;99.90;;;;;;5040351;28;20191;-43
2022/10/26 05:38:09;;;;;;;1.90;1.80;;;21.10;99.90;;;;;;5042830;28;20462;-44
2022/10/26 05:40:36;;;;;;;2.13;1.27;;;21.10;99.90;;;;;;5043225;28;20501;-44
2022/10/26 05:43:03;;;;;;;1.33;1.23;;;21.10;99.90;;;;;;5051357;28;20464;-43
2022/10/26 05:45:30;;;;;;;1.40;1.23;;;21.20;99.90;;;;;;5040090;28;20459;-44
2022/10/26 05:47:56;;;;;;;1.30;1.20;;;21.20;99.90;;;;;;5044378;28;20450;-45
2022/10/26 05:50:23;;;;;;;1.60;1.50;;;21.20;99.90;;;;;;5043387;28;20462;-42
2022/10/26 05:52:50;;;;;;;1.57;1.30;;;21.20;99.90;;;;;;5039137;28;20976;-44
2022/10/26 05:55:19;;;;;;;1.40;1.30;;;21.20;99.90;;;;;;5045195;28;20866;-43
2022/10/26 05:57:46;;;;;;;2.00;1.30;;;21.30;99.90;;;;;;5046885;28;20458;-46
2022/10/26 06:00:17;;;;;;;2.13;1.40;;;21.30;99.90;;;;;;5043871;28;20482;-43
2022/10/26 06:03:12;;;;;;;1.40;1.30;;;21.30;99.90;;;;;;5036508;28;20453;-43
2022/10/26 06:05:51;;;;;;;1.93;1.73;;;21.30;99.90;;;;;;5037697;28;20989;-43
2022/10/26 06:08:18;;;;;;;1.43;1.23;;;21.40;99.90;;;;;;5035883;28;20508;-43
2022/10/26 06:10:46;;;;;;;1.20;1.10;;;21.40;99.90;;;;;;5039567;28;20450;-43
2022/10/26 06:13:14;;;;;;;1.47;1.13;;;21.40;99.90;;;;;;5042392;28;20468;-43
2022/10/26 06:15:46;;;;;;;1.93;1.20;;;21.40;99.90;;;;;;5038729;28;20461;-43
2022/10/26 06:18:25;;;;;;;1.70;1.30;;;21.40;99.90;;;;;;5037771;28;20482;-43
2022/10/26 06:21:10;;;;;;;1.43;1.33;;;21.40;99.90;;;;;;5045847;28;20456;-43
2022/10/26 06:23:47;;;;;;;1.60;1.50;;;21.40;99.90;;;;;;5039763;28;20453;-43
2022/10/26 06:26:29;;;;;;;1.27;1.10;;;21.40;99.90;;;;;;5048168;28;20978;-43
2022/10/26 06:29:07;;;;;;;1.40;1.10;;;21.40;99.90;;;;;;5047611;28;20453;-42
2022/10/26 06:31:34;;;;;;;1.30;1.20;;;21.40;99.90;;;;;;5045025;28;20995;-43
2022/10/26 06:34:01;;;;;;;1.50;1.40;;;21.40;99.90;;;;;;5033599;28;20458;-44
2022/10/26 06:36:28;;;;;;;3.43;1.50;;;21.40;99.90;;;;;;5044950;28;20454;-46
2022/10/26 06:38:59;;;;;;;2.97;1.43;;;21.40;99.90;;;;;;5043443;28;20505;-44
2022/10/26 06:41:30;;;;;;;1.50;1.40;;;21.40;99.90;;;;;;5041681;28;20469;-43
2022/10/26 06:43:57;;;;;;;1.30;1.20;;;21.40;99.90;;;;;;5050569;28;20533;-48
2022/10/26 06:46:34;;;;;;;2.00;1.10;;;21.40;99.90;;;;;;5041441;28;20669;-43
2022/10/26 06:49:08;;;;;;;1.27;1.17;;;21.40;99.90;;;;;;5042293;28;20457;-44
2022/10/26 06:51:41;;;;;;;1.40;1.10;;;21.40;99.90;;;;;;5048729;28;20442;-44
2022/10/26 06:54:15;;;;;;;1.53;1.43;;;21.30;99.90;;;;;;5043548;28;20541;-44
2022/10/26 06:56:45;;;;;;;1.40;1.30;;;21.40;99.90;;;;;;5043316;28;20507;-43
2022/10/26 06:59:17;;;;;;;1.40;1.20;;;21.30;99.90;;;;;;5036944;28;20486;-44
2022/10/26 07:01:44;;;;;;;1.43;1.13;;;21.40;99.90;;;;;;5038903;28;20458;-43
2022/10/26 07:04:10;;;;;;;1.70;1.50;;;21.30;99.90;;;;;;5042926;28;20476;-46
2022/10/26 07:06:37;;;;;;;1.40;1.20;;;21.30;99.90;;;;;;5044138;28;20457;-44
2022/10/26 07:09:04;;;;;;;1.30;1.20;;;21.30;99.90;;;;;;5032444;28;20457;-44
2022/10/26 07:11:31;;;;;;;1.27;1.17;;;21.30;99.90;;;;;;5037217;28;20457;-43
2022/10/26 07:13:58;;;;;;;1.40;1.30;;;21.30;99.90;;;;;;5044169;28;20465;-44
2022/10/26 07:16:26;;;;;;;2.03;1.20;;;21.30;99.90;;;;;;5041250;28;20482;-45
2022/10/26 07:18:53;;;;;;;1.40;1.30;;;21.30;99.90;;;;;;5042398;28;20456;-46
2022/10/26 07:21:20;;;;;;;1.40;1.30;;;21.30;99.90;;;;;;5048712;28;20495;-44
2022/10/26 07:23:46;;;;;;;1.60;1.10;;;21.20;99.90;;;;;;5043616;28;20457;-45
2022/10/26 07:26:13;;;;;;;1.50;1.30;;;21.20;99.90;;;;;;5041133;28;20470;-44
2022/10/26 07:28:40;;;;;;;1.50;1.17;;;21.20;99.90;;;;;;5041029;28;20519;-44
2022/10/26 07:31:08;;;;;;;1.40;1.30;;;21.20;99.90;;;;;;5034299;28;20956;-44
2022/10/26 07:33:34;;;;;;;1.33;1.23;;;21.20;99.90;;;;;;5030993;28;20457;-43
2022/10/26 07:36:01;;;;;;;1.43;1.20;;;21.20;99.90;;;;;;5041578;28;20468;-43
2022/10/26 07:38:28;;;;;;;1.27;1.10;;;21.20;99.90;;;;;;5040147;28;20465;-48
2022/10/26 07:40:54;;;;;;;1.63;1.27;;;21.20;99.90;;;;;;5029795;28;20490;-43
2022/10/26 07:43:21;;;;;;;1.30;1.00;;;21.20;99.90;;;;;;5032662;28;20553;-43
2022/10/26 07:45:49;;;;;;;1.80;1.40;;;21.20;99.90;;;;;;5042026;28;20462;-44
2022/10/26 07:48:17;;;;;;;1.33;1.10;;;21.30;99.90;;;;;;5043384;28;20454;-44
2022/10/26 07:50:44;;;;;;;1.47;1.10;;;21.30;99.90;;;;;;5046813;28;20803;-44
2022/10/26 07:53:10;;;;;;;1.40;1.30;;;21.30;99.90;;;;;;5039012;28;20463;-43
2022/10/26 07:55:37;;;;;;;1.20;1.10;;;21.30;99.90;;;;;;5034557;28;20465;-43
2022/10/26 07:58:04;;;;;;;1.33;1.20;;;21.40;99.90;;;;;;5039757;28;20461;-44
2022/10/26 08:00:31;;;;;;;2.73;1.50;;;21.30;99.90;;;;;;5035944;28;20484;-44
2022/10/26 08:02:57;;;;;;;2.03;1.50;;;21.30;99.90;;;;;;5043507;28;20829;-43
2022/10/26 08:05:25;;;;;;;1.47;1.10;;;21.30;99.90;;;;;;5035236;28;20461;-44
2022/10/26 08:07:52;;;;;;;1.10;1.00;;;21.30;99.90;;;;;;5032151;28;20469;-44
2022/10/26 08:10:19;;;;;;;1.33;0.93;;;21.30;99.90;;;;;;5032460;28;20487;-43
2022/10/26 08:12:45;;;;;;;1.33;1.17;;;21.30;99.90;;;;;;5032427;28;20470;-43
2022/10/26 08:15:12;;;;;;;1.53;1.13;;;21.40;99.90;;;;;;5039679;28;20810;-43
2022/10/26 08:17:39;;;;;;;1.20;1.10;;;21.40;99.90;;;;;;5042238;28;20538;-43
2022/10/26 08:20:06;;;;;;;1.37;1.10;;;21.40;99.90;;;;;;5034214;28;20535;-43
2022/10/26 08:22:35;;;;;;;1.20;1.07;;;21.40;99.90;;;;;;5032076;28;20455;-43
2022/10/26 08:25:01;;;;;;;1.50;1.17;;;21.40;99.90;;;;;;5034841;28;20459;-44
2022/10/26 08:27:28;;;;;;;1.70;1.60;;;21.40;99.90;;;;;;5035164;28;20461;-43
2022/10/26 08:29:55;;;;;;;1.10;0.83;;;21.50;99.90;;;;;;5042182;28;20461;-43
2022/10/26 08:32:22;;;;;;;1.27;1.13;;;21.50;99.90;;;;;;5043131;28;20460;-43
2022/10/26 08:34:48;;;;;;;1.40;1.30;;;21.60;99.90;;;;;;5039462;28;20465;-47
2022/10/26 08:37:15;;;;;;;1.50;1.40;;;21.70;99.90;;;;;;5042047;28;20457;-43
2022/10/26 08:39:43;;;;;;;1.63;1.07;;;21.80;99.90;;;;;;5041269;28;20500;-43
2022/10/26 08:42:16;;;;;;;1.40;1.30;;;22.00;99.90;;;;;;5045582;28;20473;-43
2022/10/26 08:44:46;;;;;;;2.90;1.20;;;22.00;99.90;;;;;;5052115;28;21210;-43
2022/10/26 08:47:18;;;;;;;1.03;0.90;;;22.10;99.90;;;;;;5045906;28;20817;-44
2022/10/26 08:49:52;;;;;;;1.37;1.10;;;22.20;99.90;;;;;;5044431;28;20464;-42
2022/10/26 08:52:25;;;;;;;4.90;1.40;;;22.20;99.90;;;;;;5033765;28;20814;-44
2022/10/26 08:54:55;;;;;;;2.47;1.10;;;22.20;99.90;;;;;;5044622;28;20473;-42
2022/10/26 08:57:27;;;;;;;1.57;1.00;;;22.20;99.90;;;;;;5045041;28;20572;-42
2022/10/26 09:00:01;;;;;;;5.93;1.40;;;22.30;99.90;;;;;;5045848;28;20474;-42
2022/10/26 09:02:28;;;;;;;2.80;1.60;;;22.30;99.90;;;;;;5035379;28;20457;-43
2022/10/26 09:04:58;;;;;;;1.40;1.20;;;22.30;99.90;;;;;;5039526;28;20469;-44
2022/10/26 09:07:43;;;;;;;2.73;1.20;;;22.20;99.90;;;;;;5042526;28;20523;-43
2022/10/26 09:10:37;;;;;;;5.27;1.30;;;22.20;99.90;;;;;;5034327;28;20472;-43
2022/10/26 09:13:14;;;;;;;1.60;1.27;;;22.20;99.90;;;;;;5037436;28;21485;-42
2022/10/26 09:15:51;;;;;;;3.63;1.50;;;22.20;99.90;;;;;;5045489;28;20433;-46
2022/10/26 09:18:30;;;;;;;2.50;1.07;;;22.20;99.90;;;;;;5035404;28;20820;-42
2022/10/26 09:21:11;;;;;;;1.70;1.00;;;22.20;99.90;;;;;;5043709;28;20484;-42
2022/10/26 09:24:02;;;;;;;1.43;1.33;;;22.20;99.90;;;;;;5044285;28;20462;-42
2022/10/26 09:26:37;;;;;;;2.23;1.07;;;22.10;99.90;;;;;;5041764;28;20466;-46
2022/10/26 09:29:07;;;;;;;2.00;1.53;;;22.10;99.90;;;;;;5041081;28;20586;-42
2022/10/26 09:31:40;;;;;;;1.50;1.20;;;22.10;99.90;;;;;;5042244;28;20458;-42
2022/10/26 09:34:12;;;;;;;1.20;1.10;;;22.10;99.90;;;;;;5045722;28;20453;-42
2022/10/26 09:36:39;;;;;;;2.33;1.40;;;22.10;99.90;;;;;;5045307;28;20573;-42
2022/10/26 09:39:15;;;;;;;1.47;0.93;;;22.10;99.90;;;;;;5046705;28;20465;-43
2022/10/26 09:41:48;;;;;;;1.30;1.20;;;22.10;99.90;;;;;;5042866;28;20489;-42
2022/10/26 09:44:26;;;;;;;2.60;1.20;;;22.10;99.90;;;;;;5047558;28;20450;-42
2022/10/26 09:46:58;;;;;;;1.40;1.30;;;22.10;99.90;;;;;;5040816;28;20490;-42
2022/10/26 09:49:33;;;;;;;2.60;1.10;;;22.10;99.90;;;;;;5031847;28;20458;-46
2022/10/26 09:51:59;;;;;;;1.10;0.90;;;22.10;99.90;;;;;;5040626;28;20461;-44
2022/10/26 09:54:26;;;;;;;1.10;1.00;;;22.10;99.90;;;;;;5033691;28;20470;-42
2022/10/26 09:56:59;;;;;;;1.50;1.27;;;22.10;99.90;;;;;;5043323;28;20469;-42
2022/10/26 09:59:26;;;;;;;1.43;1.10;;;22.10;99.90;;;;;;5041349;28;20964;-42
2022/10/26 10:01:53;;;;;;;3.10;1.23;;;22.10;99.90;;;;;;5036051;28;20454;-42
2022/10/26 10:04:22;;;;;;;3.00;1.30;;;22.10;99.90;;;;;;5036846;28;20826;-43
2022/10/26 10:06:51;;;;;;;1.20;1.03;;;22.10;99.90;;;;;;5040799;28;20461;-43
2022/10/26 10:09:19;;;;;;;1.87;1.10;;;22.10;99.90;;;;;;5044407;28;20826;-43
2022/10/26 10:11:53;;;;;;;2.23;1.10;;;22.00;99.90;;;;;;5038222;28;20466;-42
2022/10/26 10:14:23;;;;;;;1.27;1.00;;;22.10;99.90;;;;;;5045331;28;20537;-43
2022/10/26 10:16:53;;;;;;;1.20;1.10;;;22.10;99.90;;;;;;5041372;28;20477;-42
2022/10/26 10:19:26;;;;;;;1.33;1.20;;;22.10;99.90;;;;;;5038395;28;20481;-44
2022/10/26 10:21:56;;;;;;;1.20;1.10;;;22.10;99.90;;;;;;5042795;28;21000;-42
2022/10/26 10:24:26;;;;;;;1.63;1.40;;;22.10;99.90;;;;;;5039030;28;20461;-42
2022/10/26 10:27:01;;;;;;;1.30;1.20;;;22.10;99.90;;;;;;5038940;28;20461;-43
2022/10/26 10:29:31;;;;;;;3.00;1.30;;;22.20;99.90;;;;;;5042497;28;20647;-43
2022/10/26 10:31:59;;;;;;;1.50;1.10;;;22.20;99.90;;;;;;5045083;28;20523;-42
2022/10/26 10:34:25;;;;;;;1.53;1.10;;;22.20;99.90;;;;;;5034306;28;20470;-43
2022/10/26 10:36:53;;;;;;;1.50;1.10;;;22.20;99.90;;;;;;5041861;28;20461;-42
2022/10/26 10:39:38;;;;;;;1.57;1.10;;;22.20;99.90;;;;;;5044262;28;20465;-42
2022/10/26 10:42:14;;;;;;;1.20;0.90;;;22.20;99.90;;;;;;5050733;28;20442;-43
2022/10/26 10:44:45;;;;;;;1.30;0.90;;;22.20;99.90;;;;;;5038943;28;20438;-44
2022/10/26 10:47:21;;;;;;;1.50;1.20;;;22.20;99.90;;;;;;5037390;28;20872;-43
2022/10/26 10:49:55;;;;;;;1.30;0.97;;;22.30;99.90;;;;;;5040014;28;20457;-42
2022/10/26 10:52:25;;;;;;;1.77;1.20;;;22.30;99.90;;;;;;5040439;28;20453;-44
2022/10/26 10:54:58;;;;;;;1.50;1.03;;;22.30;99.90;;;;;;5043196;28;20496;-43
2022/10/26 10:57:32;;;;;;;1.40;1.10;;;22.30;99.90;;;;;;5045029;28;20544;-44
2022/10/26 11:00:04;;;;;;;1.20;0.90;;;22.30;99.90;;;;;;5041915;28;20790;-42
2022/10/26 11:03:15;;;;;;;2.50;1.17;;;22.30;99.90;;;;;;5045923;28;20465;-43
2022/10/26 11:06:01;;;;;;;2.00;1.40;;;22.30;99.90;;;;;;5043176;28;20437;-35
2022/10/26 11:08:32;;;;;;;2.30;1.47;;;22.40;99.90;;;;;;5032650;28;20470;-42
2022/10/26 11:11:03;;;;;;;2.07;1.13;;;22.40;99.90;;;;;;5032590;28;21015;-41
2022/10/26 11:13:36;;;;;;;1.83;1.17;;;22.40;99.90;;;;;;5042771;28;20527;-41
2022/10/26 11:16:11;;;;;;;1.50;1.20;;;22.40;99.90;;;;;;5038995;28;20782;-42
2022/10/26 11:18:41;;;;;;;1.50;1.17;;;22.50;99.90;;;;;;5034520;28;20857;-43
2022/10/26 11:21:18;;;;;;;2.50;1.60;;;22.50;99.90;;;;;;5042721;28;20474;-44
2022/10/26 11:23:50;;;;;;;1.20;1.10;;;22.50;99.90;;;;;;5038900;28;20452;-39
2022/10/26 11:26:24;;;;;;;4.00;1.90;;;22.50;99.90;;;;;;5040624;28;20453;-37
2022/10/26 11:28:58;;;;;;;1.33;1.10;;;22.60;99.90;;;;;;5044332;28;20457;-38
2022/10/26 11:31:33;;;;;;;1.40;1.30;;;22.60;99.90;;;;;;5051199;28;20445;-37
2022/10/26 11:34:14;;;;;;;1.17;1.07;;;22.60;99.90;;;;;;5052734;28;20828;-42
2022/10/26 11:36:43;;;;;;;1.53;1.30;;;22.60;99.90;;;;;;5043411;28;20482;-43
2022/10/26 11:39:19;;;;;;;1.13;0.80;;;22.60;99.90;;;;;;5041167;28;20465;-40
2022/10/26 11:41:50;;;;;;;1.50;1.13;;;22.70;99.90;;;;;;5043592;28;20579;-37
2022/10/26 11:44:22;;;;;;;1.83;1.13;;;22.70;99.90;;;;;;5034183;28;20454;-42
2022/10/26 11:46:54;;;;;;;1.17;1.00;;;22.70;99.90;;;;;;5048091;28;20453;-45
2022/10/26 11:49:27;;;;;;;4.67;1.33;;;22.70;99.90;;;;;;5038431;28;20540;-44
2022/10/26 11:51:59;;;;;;;2.27;1.20;;;22.70;99.90;;;;;;5041564;28;20964;-39
2022/10/26 11:54:33;;;;;;;1.30;1.10;;;22.70;99.90;;;;;;5040734;28;20438;-39
2022/10/26 11:57:01;;;;;;;1.17;1.00;;;22.80;99.90;;;;;;5042691;28;20465;-44
2022/10/26 11:59:32;;;;;;;1.13;1.03;;;22.80;99.90;;;;;;5043240;28;20544;-43
2022/10/26 12:02:04;;;;;;;1.60;1.20;;;22.80;99.90;;;;;;5045200;28;20484;-37
2022/10/26 12:04:35;;;;;;;2.37;1.10;;;22.80;99.90;;;;;;5050807;28;20975;-37
2022/10/26 12:07:07;;;;;;;4.27;1.10;;;22.80;99.90;;;;;;5048681;28;20464;-40
2022/10/26 12:09:37;;;;;;;3.10;1.27;;;22.80;99.90;;;;;;5042653;28;20473;-39
2022/10/26 12:12:09;;;;;;;1.63;1.17;;;22.80;99.90;;;;;;5049645;28;20937;-40
2022/10/26 12:14:43;;;;;;;1.17;0.97;;;22.90;99.90;;;;;;5041037;28;20450;-41
2022/10/26 12:17:17;;;;;;;1.40;1.20;;;22.90;99.90;;;;;;5044918;28;20485;-36
2022/10/26 12:19:49;;;;;;;1.70;1.40;;;22.90;99.90;;;;;;5043521;28;20450;-35
2022/10/26 12:22:18;;;;;;;1.40;0.97;;;22.90;99.90;;;;;;5049740;28;20887;-35
2022/10/26 12:24:47;;;;;;;1.27;1.00;;;22.90;99.90;;;;;;5046122;28;20476;-43
2022/10/26 12:27:31;;;;;;;1.50;0.97;;;22.90;99.90;;;;;;5044138;28;20458;-40
2022/10/26 12:30:30;;;;;;;1.40;0.93;;;22.90;99.90;;;;;;5048005;28;20438;-42
2022/10/26 12:33:00;;;;;;;1.97;1.00;;;22.90;99.90;;;;;;5051350;28;20503;-40
2022/10/26 12:35:43;;;;;;;1.40;1.17;;;22.90;99.90;;;;;;5047139;28;20461;-38
2022/10/26 12:38:48;;;;;;;2.30;1.00;;;22.90;99.90;;;;;;5039652;28;20462;-43
2022/10/26 12:41:21;;;;;;;1.63;1.53;;;22.90;99.90;;;;;;5046122;28;20568;-41
2022/10/26 12:43:48;;;;;;;1.20;1.10;;;22.90;99.90;;;;;;5054036;28;20539;-37
2022/10/26 12:46:43;;;;;;;1.43;1.17;;;22.90;99.90;;;;;;5047034;28;20846;-41
2022/10/26 12:49:58;;;;;;;1.23;1.00;;;22.90;99.90;;;;;;5045198;28;20449;-36
2022/10/26 12:52:43;;;;;;;1.37;1.00;;;22.90;99.90;;;;;;5047783;28;20817;-39
2022/10/26 12:55:46;;;;;;;1.53;1.00;;;23.00;99.90;;;;;;5048104;28;20939;-38
2022/10/26 12:58:41;;;;;;;2.33;1.20;;;23.00;99.90;;;;;;5049116;28;20461;-37
2022/10/26 13:01:35;;;;;;;1.30;0.73;;;23.00;99.90;;;;;;5047218;28;20469;-39
2022/10/26 13:04:18;;;;;;;1.10;1.00;;;23.00;99.90;;;;;;5049789;28;20848;-39
2022/10/26 13:07:12;;;;;;;1.30;1.07;;;22.90;99.90;;;;;;5038199;28;20515;-40
2022/10/26 13:09:44;;;;;;;2.70;1.27;;;22.90;99.90;;;;;;5048795;28;20462;-39